Terminal Aerodrome Forecast
Issued by NWS Chicago, IL

Home | Current Version | Previous Version | Graphics & Text | Print | Product List | Glossary On
Versions: 1 2 3 4 5 6 7 8 9 10 11 12 13 14 15 16 17 18 19 20 21 22 23 24 25 26 27 28 29 30 31 32 33 34
000
FTUS43 KLOT 181600 AAB
TAFRFD
TAF AMD
KRFD 181601Z 1816/1912 VRB04KT P6SM SCT020 SCT035
     FM181900 20008KT P6SM BKN035
     FM182300 21007KT P6SM VCSH BKN040
     FM190200 21008KT 6SM -TSRA SCT035CB BKN050
     FM190500 20010KT P6SM -TSRA SCT035CB BKN040
     FM190900 22009KT 4SM SHRA BR BKN025 PROB30 1909/1912 TSRA
      BKN035CB=

USA.gov is the U.S. government's official web portal to all federal, state and local government web resources and services.